createdAt,value
2023-04-25T00:06:21.471Z,100.00
2023-04-25T00:13:03.945Z,100.00
2023-04-25T00:19:47.304Z,100.00
2023-04-25T00:26:29.453Z,100.00
2023-04-25T00:33:11.911Z,100.00
2023-04-25T00:39:55.914Z,100.00
2023-04-25T00:46:39.931Z,100.00
2023-04-25T00:53:27.542Z,100.00
2023-04-25T01:00:12.083Z,100.00
2023-04-25T01:06:54.652Z,100.00
2023-04-25T01:13:36.952Z,100.00
2023-04-25T01:20:24.014Z,100.00
2023-04-25T01:27:07.261Z,100.00
2023-04-25T01:33:49.874Z,100.00
2023-04-25T01:40:34.340Z,100.00
2023-04-25T01:47:16.614Z,100.00
2023-04-25T01:54:01.104Z,100.00
2023-04-25T02:00:45.656Z,100.00
2023-04-25T02:07:28.406Z,100.00
2023-04-25T02:14:10.806Z,100.00
2023-04-25T02:21:02.729Z,100.00
2023-04-25T02:27:45.029Z,100.00
2023-04-25T02:34:27.200Z,100.00
2023-04-25T02:41:09.381Z,100.00
2023-04-25T02:47:51.563Z,100.00
2023-04-25T02:54:35.858Z,100.00
2023-04-25T03:01:19.396Z,100.00
2023-04-25T03:08:01.802Z,100.00
2023-04-25T03:14:45.825Z,100.00
2023-04-25T03:21:28.267Z,100.00
2023-04-25T03:28:10.649Z,100.00
2023-04-25T03:34:53.222Z,100.00
2023-04-25T03:41:35.635Z,100.00
2023-04-25T03:48:23.459Z,100.00
2023-04-25T03:55:06.477Z,100.00
2023-04-25T04:01:48.744Z,100.00
2023-04-25T04:08:31.428Z,100.00
2023-04-25T04:15:14.173Z,100.00
2023-04-25T04:21:59.567Z,100.00
2023-04-25T04:28:42.390Z,100.00
2023-04-25T04:35:41.297Z,100.00
2023-04-25T04:42:25.251Z,100.00
2023-04-25T04:49:26.403Z,100.00
2023-04-25T04:56:24.649Z,97.19
2023-04-25T05:03:12.560Z,95.39
2023-04-25T05:10:24.303Z,94.95
2023-04-25T05:17:40.071Z,95.59
2023-04-25T05:24:49.518Z,94.94
2023-04-25T05:31:54.103Z,95.25
2023-04-25T05:38:36.571Z,96.42
2023-04-25T05:45:37.161Z,96.66
2023-04-25T05:52:43.660Z,96.97
2023-04-25T05:59:37.104Z,96.58
2023-04-25T06:06:20.091Z,95.03
2023-04-25T06:13:02.774Z,94.92
2023-04-25T06:19:45.841Z,94.66
2023-04-25T06:26:28.989Z,93.85
2023-04-25T06:33:11.322Z,94.20
2023-04-25T06:39:55.085Z,91.50
2023-04-25T06:46:38.775Z,92.05
2023-04-25T06:53:21.200Z,91.99
2023-04-25T07:00:12.398Z,88.75
2023-04-25T07:06:55.829Z,88.86
2023-04-25T07:13:58.437Z,89.50
2023-04-25T07:20:40.944Z,88.16
2023-04-25T07:27:23.297Z,86.76
2023-04-25T07:34:23.386Z,85.59
2023-04-25T07:41:06.107Z,84.35
2023-04-25T07:47:48.696Z,82.30
2023-04-25T07:54:31.292Z,81.99
2023-04-25T08:01:22.549Z,81.38
2023-04-25T08:08:12.613Z,80.94
2023-04-25T08:14:55.050Z,80.81
2023-04-25T08:21:42.887Z,80.19
2023-04-25T08:28:30.137Z,77.72
2023-04-25T08:35:17.470Z,73.97
2023-04-25T08:42:01.977Z,72.43
2023-04-25T08:48:47.059Z,72.15
2023-04-25T08:55:30.662Z,72.54
2023-04-25T09:02:17.729Z,71.83
2023-04-25T09:09:09.433Z,68.13
2023-04-25T09:15:55.307Z,68.41
2023-04-25T09:23:04.769Z,66.41
2023-04-25T09:29:48.449Z,66.02
2023-04-25T09:36:32.790Z,65.33
2023-04-25T09:43:25.868Z,64.97
2023-04-25T09:50:20.076Z,66.38
2023-04-25T09:57:26.279Z,66.83
2023-04-25T10:04:13.173Z,66.85
2023-04-25T10:11:09.357Z,66.30
2023-04-25T10:17:52.448Z,65.57
2023-04-25T10:24:39.591Z,65.25
2023-04-25T10:31:23.009Z,65.34
2023-04-25T10:38:06.522Z,65.82
2023-04-25T10:45:06.676Z,67.62
2023-04-25T10:51:55.252Z,68.98
2023-04-25T10:58:42.484Z,69.66
2023-04-25T11:05:43.812Z,70.41
2023-04-25T11:12:26.680Z,71.01
2023-04-25T11:19:08.882Z,69.16
2023-04-25T11:25:52.177Z,69.50
2023-04-25T11:32:35.244Z,69.09
2023-04-25T11:39:17.476Z,68.86
2023-04-25T11:45:59.735Z,69.29
2023-04-25T11:52:45.402Z,69.92
2023-04-25T11:59:27.762Z,69.97
2023-04-25T12:06:10.496Z,69.79
2023-04-25T12:12:53.063Z,69.43
2023-04-25T12:19:37.675Z,69.71
2023-04-25T12:26:21.292Z,68.05
2023-04-25T12:33:03.408Z,67.41
2023-04-25T12:39:45.745Z,67.52
2023-04-25T12:46:27.980Z,67.18
2023-04-25T12:53:10.754Z,66.84
2023-04-25T12:59:53.361Z,66.98
2023-04-25T13:06:35.570Z,66.46
2023-04-25T13:13:18.003Z,64.07
2023-04-25T13:20:00.173Z,63.10
2023-04-25T13:26:43.063Z,62.32
2023-04-25T13:33:25.344Z,62.95
2023-04-25T13:40:11.155Z,62.15
2023-04-25T13:46:53.478Z,63.14
2023-04-25T13:53:35.924Z,66.95
2023-04-25T14:00:18.659Z,71.48
2023-04-25T14:07:00.886Z,75.29
2023-04-25T14:13:43.226Z,77.28
2023-04-25T14:20:25.627Z,80.33
2023-04-25T14:27:07.947Z,83.04
2023-04-25T14:33:50.427Z,84.18
2023-04-25T14:40:32.871Z,85.42
2023-04-25T14:47:15.450Z,85.25
2023-04-25T14:53:57.994Z,86.24
2023-04-25T15:00:40.271Z,87.66
2023-04-25T15:07:23.373Z,87.71
2023-04-25T15:14:05.736Z,87.14
2023-04-25T15:20:47.912Z,86.77
2023-04-25T15:27:30.204Z,80.76
2023-04-25T15:34:12.449Z,80.51
2023-04-25T15:40:54.597Z,75.76
2023-04-25T15:47:38.639Z,74.07
2023-04-25T15:54:20.798Z,75.28
2023-04-25T16:01:04.823Z,75.41
2023-04-25T16:07:47.969Z,76.23
2023-04-25T16:14:31.395Z,77.71
2023-04-25T16:21:17.068Z,77.85
2023-04-25T16:27:59.456Z,78.56
2023-04-25T16:34:41.606Z,77.71
2023-04-25T16:41:25.168Z,76.92
2023-04-25T16:48:07.488Z,77.09
2023-04-25T16:54:49.886Z,75.90
2023-04-25T17:01:33.019Z,75.12
2023-04-25T17:08:15.180Z,73.76
2023-04-25T17:14:57.636Z,71.87
2023-04-25T17:21:39.790Z,70.98
2023-04-25T17:28:22.026Z,70.61
2023-04-25T17:35:05.837Z,71.24
2023-04-25T17:41:48.355Z,70.46
2023-04-25T17:48:31.767Z,70.77
2023-04-25T17:55:14.465Z,73.06
2023-04-25T18:01:59.357Z,74.89
2023-04-25T18:08:41.524Z,76.39
2023-04-25T18:15:25.037Z,77.88
2023-04-25T18:22:07.520Z,78.53
2023-04-25T18:28:49.835Z,76.03
2023-04-25T18:35:32.138Z,74.98
2023-04-25T18:42:14.447Z,74.14
2023-04-25T18:48:56.650Z,72.65
2023-04-25T18:55:40.756Z,73.06
2023-04-25T19:02:23.082Z,69.53
2023-04-25T19:09:05.459Z,66.15
2023-04-25T19:15:48.436Z,63.43
2023-04-25T19:22:31.057Z,63.65
2023-04-25T19:29:15.426Z,63.39
2023-04-25T19:35:57.598Z,62.06
2023-04-25T19:42:39.787Z,61.41
2023-04-25T19:49:22.184Z,61.22
2023-04-25T19:56:05.012Z,61.39
2023-04-25T20:02:47.905Z,62.74
2023-04-25T20:09:30.236Z,64.00
2023-04-25T20:16:12.804Z,64.45
2023-04-25T20:22:55.614Z,65.24
2023-04-25T20:29:37.843Z,67.42
2023-04-25T20:36:20.025Z,68.36
2023-04-25T20:43:02.312Z,69.10
2023-04-25T20:49:44.593Z,69.92
2023-04-25T20:56:26.870Z,70.62
2023-04-25T21:03:09.307Z,70.31
2023-04-25T21:09:51.779Z,69.78
2023-04-25T21:16:35.522Z,69.53
2023-04-25T21:23:18.139Z,68.89
2023-04-25T21:30:00.404Z,68.48
2023-04-25T21:36:44.209Z,68.18
2023-04-25T21:43:26.460Z,67.90
2023-04-25T21:50:09.239Z,67.51
2023-04-25T21:56:51.459Z,67.72
2023-04-25T22:03:34.386Z,67.08
2023-04-25T22:10:16.730Z,67.02
2023-04-25T22:16:59.028Z,66.88
2023-04-25T22:23:41.085Z,66.95
2023-04-25T22:30:23.532Z,67.16
2023-04-25T22:37:05.742Z,67.25
2023-04-25T22:43:47.878Z,67.21
2023-04-25T22:50:30.140Z,66.76
2023-04-25T22:57:12.317Z,66.74
2023-04-25T23:03:55.008Z,67.00
2023-04-25T23:10:37.520Z,67.01
2023-04-25T23:17:20.573Z,67.32
2023-04-25T23:24:02.837Z,67.15
2023-04-25T23:30:45.002Z,67.02
2023-04-25T23:37:27.184Z,67.02
2023-04-25T23:44:10.891Z,66.77
2023-04-25T23:50:53.014Z,66.99
2023-04-25T23:57:35.590Z,67.12
